createdAt,value
2023-05-07T00:01:49.950Z,5.00
2023-05-07T00:04:29.704Z,5.00
2023-05-07T00:07:16.935Z,4.90
2023-05-07T00:09:56.750Z,4.90
2023-05-07T00:12:36.948Z,4.80
2023-05-07T00:15:23.741Z,4.80
2023-05-07T00:18:10.704Z,4.80
2023-05-07T00:20:50.991Z,4.80
2023-05-07T00:23:37.686Z,4.80
2023-05-07T00:26:17.794Z,4.80
2023-05-07T00:29:05.706Z,4.70
2023-05-07T00:31:45.868Z,4.80
2023-05-07T00:34:32.714Z,4.80
2023-05-07T00:37:13.231Z,4.90
2023-05-07T00:39:59.711Z,4.80
2023-05-07T00:42:39.834Z,4.80
2023-05-07T00:45:26.716Z,4.70
2023-05-07T00:48:21.218Z,4.70
2023-05-07T00:51:07.827Z,4.70
2023-05-07T00:53:47.873Z,4.70
2023-05-07T00:56:34.732Z,4.70
2023-05-07T00:59:14.865Z,4.70
2023-05-07T01:02:01.778Z,4.70
2023-05-07T01:04:41.914Z,4.70
2023-05-07T01:07:28.768Z,4.70
2023-05-07T01:10:10.121Z,4.80
2023-05-07T01:12:57.787Z,4.80
2023-05-07T01:15:37.982Z,4.80
2023-05-07T01:18:24.768Z,4.90
2023-05-07T01:21:13.821Z,4.90
2023-05-07T01:24:01.861Z,4.90
2023-05-07T01:26:41.752Z,4.80
2023-05-07T01:29:23.999Z,4.70
2023-05-07T01:32:12.743Z,4.70
2023-05-07T01:35:00.894Z,4.60
2023-05-07T01:37:40.833Z,4.60
2023-05-07T01:40:28.054Z,4.60
2023-05-07T01:43:10.795Z,4.60
2023-05-07T01:45:51.190Z,4.50
2023-05-07T01:48:38.769Z,4.50
2023-05-07T01:51:26.125Z,4.50
2023-05-07T01:54:06.798Z,4.40
2023-05-07T01:56:53.860Z,4.40
2023-05-07T01:59:34.890Z,4.30
2023-05-07T02:02:21.921Z,4.40
2023-05-07T02:05:04.828Z,4.40
2023-05-07T02:07:53.939Z,4.40
2023-05-07T02:10:35.802Z,4.40
2023-05-07T02:13:25.549Z,4.40
2023-05-07T02:16:05.873Z,4.40
2023-05-07T02:18:53.166Z,4.40
2023-05-07T02:21:32.902Z,4.40
2023-05-07T02:24:26.897Z,4.30
2023-05-07T02:27:13.940Z,4.30
2023-05-07T02:29:53.896Z,4.30
2023-05-07T02:32:41.247Z,4.30
2023-05-07T02:35:21.826Z,4.30
2023-05-07T02:38:11.704Z,4.30
2023-05-07T02:40:51.821Z,4.30
2023-05-07T02:43:39.033Z,4.30
2023-05-07T02:46:19.917Z,4.20
2023-05-07T02:49:20.856Z,4.20
2023-05-07T02:52:07.923Z,4.20
2023-05-07T02:54:49.059Z,4.30
2023-05-07T02:57:35.924Z,4.40
2023-05-07T03:00:19.934Z,4.30
2023-05-07T03:03:20.852Z,4.30
2023-05-07T03:06:01.008Z,4.40
2023-05-07T03:08:47.960Z,4.50
2023-05-07T03:11:28.033Z,4.50
2023-05-07T03:14:14.870Z,4.40
2023-05-07T03:17:01.883Z,4.30
2023-05-07T03:19:49.008Z,4.20
2023-05-07T03:22:28.874Z,4.30
2023-05-07T03:25:16.102Z,4.40
2023-05-07T03:27:55.897Z,4.40
2023-05-07T03:30:52.130Z,4.50
2023-05-07T03:33:31.959Z,4.50
2023-05-07T03:36:19.158Z,4.50
2023-05-07T03:38:59.924Z,4.50
2023-05-07T03:41:45.216Z,4.50
2023-05-07T03:44:31.888Z,4.50
2023-05-07T03:47:34.123Z,4.50
2023-05-07T03:50:30.028Z,4.60
2023-05-07T03:53:17.008Z,4.70
2023-05-07T03:55:57.974Z,4.80
2023-05-07T03:58:48.919Z,4.80
2023-05-07T04:01:29.069Z,4.80
2023-05-07T04:04:15.961Z,4.80
2023-05-07T04:06:56.188Z,4.70
2023-05-07T04:09:43.975Z,4.60
2023-05-07T04:12:24.011Z,4.70
2023-05-07T04:15:12.935Z,4.80
2023-05-07T04:17:53.222Z,4.90
2023-05-07T04:20:41.976Z,4.90
2023-05-07T04:23:23.134Z,5.00
2023-05-07T04:26:11.925Z,5.10
2023-05-07T04:28:53.141Z,5.30
2023-05-07T04:31:44.948Z,5.20
2023-05-07T04:34:26.038Z,5.30
2023-05-07T04:37:15.049Z,5.40
2023-05-07T04:39:55.031Z,5.40
2023-05-07T04:42:42.974Z,5.50
2023-05-07T04:45:24.074Z,5.60
2023-05-07T04:48:10.975Z,5.70
2023-05-07T04:50:59.047Z,5.70
2023-05-07T04:53:38.933Z,5.80
2023-05-07T04:56:33.046Z,5.80
2023-05-07T04:59:20.042Z,6.00
2023-05-07T05:02:01.051Z,6.00
2023-05-07T05:04:41.273Z,6.10
2023-05-07T05:07:29.026Z,6.20
2023-05-07T05:10:17.367Z,6.30
2023-05-07T05:12:57.978Z,6.30
2023-05-07T05:15:46.750Z,6.40
2023-05-07T05:21:15.238Z,6.70
2023-05-07T05:23:59.087Z,6.80
2023-05-07T05:26:39.378Z,6.80
2023-05-07T05:29:25.999Z,6.80
2023-05-07T05:32:13.108Z,6.90
2023-05-07T05:34:54.013Z,7.00
2023-05-07T05:37:41.110Z,7.10
2023-05-07T05:40:21.047Z,7.20
2023-05-07T05:43:08.200Z,7.40
2023-05-07T05:45:49.003Z,7.50
2023-05-07T05:48:44.026Z,7.60
2023-05-07T05:51:31.039Z,7.70
2023-05-07T05:54:19.075Z,7.80
2023-05-07T05:57:07.353Z,7.90
2023-05-07T05:59:47.048Z,8.00
2023-05-07T06:02:34.236Z,8.10
2023-05-07T06:05:15.229Z,8.10
2023-05-07T06:08:06.287Z,8.10
2023-05-07T06:10:47.149Z,8.20
2023-05-07T06:13:34.152Z,8.40
2023-05-07T06:16:14.073Z,8.40
2023-05-07T06:19:02.221Z,8.50
2023-05-07T06:21:42.102Z,8.60
2023-05-07T06:24:22.315Z,8.80
2023-05-07T06:27:09.063Z,8.90
2023-05-07T06:29:49.555Z,9.00
2023-05-07T06:32:36.114Z,9.10
2023-05-07T06:35:17.327Z,9.10
2023-05-07T06:38:04.127Z,9.10
2023-05-07T06:40:51.386Z,9.00
2023-05-07T06:43:31.074Z,9.20
2023-05-07T06:46:40.247Z,9.50
2023-05-07T06:49:35.358Z,9.50
2023-05-07T06:52:22.174Z,9.70
2023-05-07T06:55:03.283Z,9.80
2023-05-07T06:57:50.067Z,10.00
2023-05-07T07:00:32.242Z,10.50
2023-05-07T07:03:19.132Z,11.20
2023-05-07T07:06:03.644Z,11.70
2023-05-07T07:08:51.104Z,12.20
2023-05-07T07:11:32.272Z,12.70
2023-05-07T07:14:21.087Z,12.80
2023-05-07T07:17:02.341Z,12.90
2023-05-07T07:19:49.178Z,13.10
2023-05-07T07:22:37.183Z,13.50
2023-05-07T07:25:24.505Z,13.90
2023-05-07T07:28:05.118Z,14.50
2023-05-07T07:30:53.280Z,15.00
2023-05-07T07:33:33.238Z,15.10
2023-05-07T07:36:21.033Z,14.90
2023-05-07T07:39:02.217Z,15.00
2023-05-07T07:41:50.364Z,15.40
2023-05-07T07:44:31.217Z,15.60
2023-05-07T07:47:22.354Z,16.10
2023-05-07T07:50:03.276Z,16.50
2023-05-07T07:52:50.422Z,17.50
2023-05-07T07:55:31.183Z,19.20
2023-05-07T07:58:18.360Z,20.50
2023-05-07T08:01:00.250Z,21.50
2023-05-07T08:03:47.498Z,21.90
2023-05-07T08:06:29.178Z,22.60
2023-05-07T08:09:09.524Z,23.10
2023-05-07T08:11:56.297Z,23.20
2023-05-07T08:14:39.659Z,23.80
2023-05-07T08:17:26.331Z,24.20
2023-05-07T08:20:13.684Z,23.10
2023-05-07T08:22:53.237Z,22.40
2023-05-07T08:25:41.460Z,22.50
2023-05-07T08:28:23.192Z,22.30
2023-05-07T08:31:10.542Z,21.90
2023-05-07T08:33:52.264Z,22.10
2023-05-07T08:36:46.218Z,21.90
2023-05-07T08:39:36.345Z,21.90
2023-05-07T08:42:24.221Z,21.50
2023-05-07T08:45:13.395Z,20.40
2023-05-07T08:47:59.280Z,19.80
2023-05-07T08:50:49.462Z,19.50
2023-05-07T08:53:29.312Z,19.20
2023-05-07T08:56:16.670Z,19.80
2023-05-07T08:58:59.236Z,20.50
2023-05-07T09:01:46.436Z,20.70
2023-05-07T09:04:27.252Z,20.80
2023-05-07T09:07:15.419Z,21.10
2023-05-07T09:09:56.254Z,21.20
2023-05-07T09:12:43.542Z,21.90
2023-05-07T09:15:25.299Z,23.00
2023-05-07T09:18:13.380Z,22.80
2023-05-07T09:20:56.348Z,22.50
2023-05-07T09:23:43.507Z,22.80
2023-05-07T09:26:24.359Z,23.10
2023-05-07T09:29:12.402Z,23.30
2023-05-07T09:31:53.335Z,22.80
2023-05-07T09:34:40.320Z,22.90
2023-05-07T09:37:23.396Z,23.40
2023-05-07T09:40:10.295Z,24.40
2023-05-07T09:42:50.884Z,25.40
2023-05-07T09:45:38.428Z,26.80
2023-05-07T09:48:20.553Z,27.70
2023-05-07T09:51:10.316Z,28.10
2023-05-07T09:53:51.385Z,28.40
2023-05-07T09:56:39.320Z,28.40
2023-05-07T09:59:20.458Z,28.30
2023-05-07T10:02:09.345Z,27.60
2023-05-07T10:04:56.972Z,27.10
2023-05-07T10:07:45.343Z,27.10
2023-05-07T10:10:33.455Z,27.20
2023-05-07T10:13:17.772Z,27.30
2023-05-07T10:16:08.446Z,27.70
2023-05-07T10:18:55.010Z,28.00
2023-05-07T10:21:42.418Z,27.90
2023-05-07T10:24:35.075Z,27.70
2023-05-07T10:27:22.385Z,27.40
2023-05-07T10:30:19.478Z,27.10
2023-05-07T10:33:02.384Z,27.00
2023-05-07T10:35:59.398Z,27.10
2023-05-07T10:38:41.872Z,27.10
2023-05-07T10:41:31.385Z,26.90
2023-05-07T10:44:18.477Z,26.50
2023-05-07T10:47:16.456Z,25.80
2023-05-07T10:50:19.463Z,26.00
2023-05-07T10:53:24.422Z,26.20
2023-05-07T10:56:34.605Z,26.00
2023-05-07T10:59:31.395Z,25.90
2023-05-07T11:02:29.665Z,25.40
2023-05-07T11:05:24.815Z,25.30
2023-05-07T11:08:23.422Z,25.20
2023-05-07T11:11:11.992Z,25.40
2023-05-07T11:14:04.635Z,25.20
2023-05-07T11:17:02.438Z,25.50
2023-05-07T11:20:05.500Z,25.70
2023-05-07T11:22:51.735Z,26.00
2023-05-07T11:26:01.531Z,26.30
2023-05-07T11:28:48.529Z,25.90
2023-05-07T11:31:32.514Z,25.60
2023-05-07T11:34:13.078Z,26.00
2023-05-07T11:37:02.462Z,26.20
2023-05-07T11:40:10.500Z,26.10
2023-05-07T11:45:38.480Z,25.30
2023-05-07T11:48:19.541Z,24.80
2023-05-07T11:51:06.524Z,24.80
2023-05-07T11:53:50.573Z,25.10
2023-05-07T11:56:37.468Z,24.80
2023-05-07T11:59:17.590Z,24.60
2023-05-07T12:02:05.591Z,24.50
2023-05-07T12:04:45.984Z,23.90
2023-05-07T12:07:32.517Z,23.90
2023-05-07T12:10:15.920Z,23.80
2023-05-07T12:13:02.633Z,23.50
2023-05-07T12:15:42.647Z,23.10
2023-05-07T12:18:29.532Z,23.30
2023-05-07T12:21:09.782Z,23.20
2023-05-07T12:23:56.512Z,23.30
2023-05-07T12:26:36.967Z,23.20
2023-05-07T12:29:23.538Z,23.10
2023-05-07T12:32:05.755Z,22.50
2023-05-07T12:34:53.537Z,21.40
2023-05-07T12:37:36.729Z,20.60
2023-05-07T12:40:23.601Z,20.10
2023-05-07T12:43:03.625Z,19.60
2023-05-07T12:45:50.633Z,19.10
2023-05-07T12:48:30.949Z,18.70
2023-05-07T12:51:18.585Z,18.40
2023-05-07T12:54:03.823Z,18.30
2023-05-07T12:56:50.548Z,18.10
2023-05-07T12:59:38.770Z,17.70
2023-05-07T13:02:25.594Z,17.30
2023-05-07T13:05:05.671Z,16.60
2023-05-07T13:08:00.591Z,16.30
2023-05-07T13:10:40.704Z,16.00
2023-05-07T13:13:28.935Z,15.80
2023-05-07T13:16:12.124Z,15.80
2023-05-07T13:18:59.591Z,15.60
2023-05-07T13:21:46.664Z,15.20
2023-05-07T13:24:33.781Z,14.90
2023-05-07T13:27:13.580Z,14.90
2023-05-07T13:29:53.858Z,15.00
2023-05-07T13:32:40.645Z,14.90
2023-05-07T13:35:27.761Z,14.70
2023-05-07T13:38:07.590Z,14.70
2023-05-07T13:40:54.740Z,14.60
2023-05-07T13:43:34.640Z,14.60
2023-05-07T13:46:21.742Z,14.70
2023-05-07T13:49:02.678Z,14.80
2023-05-07T13:51:49.724Z,14.90
2023-05-07T13:54:29.612Z,14.90
2023-05-07T13:57:16.794Z,14.90
2023-05-07T13:59:56.611Z,14.90
2023-05-07T14:02:32.905Z,14.90
2023-05-07T14:04:59.991Z,14.70
2023-05-07T14:07:27.239Z,14.50
2023-05-07T14:09:54.200Z,14.50
2023-05-07T14:12:21.563Z,14.60
2023-05-07T14:14:48.620Z,14.70
2023-05-07T14:17:16.141Z,14.50
2023-05-07T14:19:44.182Z,14.40
2023-05-07T14:22:11.637Z,14.50
2023-05-07T14:24:40.566Z,14.50
2023-05-07T14:27:07.867Z,14.40
2023-05-07T14:29:36.596Z,14.40
2023-05-07T14:32:04.339Z,14.30
2023-05-07T14:34:32.766Z,14.30
2023-05-07T14:37:00.866Z,14.20
2023-05-07T14:39:28.161Z,14.20
2023-05-07T14:41:57.080Z,14.10
2023-05-07T14:44:24.043Z,13.90
2023-05-07T14:46:52.359Z,13.80
2023-05-07T14:49:19.246Z,13.70
2023-05-07T14:51:46.828Z,13.80
2023-05-07T14:54:14.651Z,13.80
2023-05-07T14:56:42.086Z,13.80
2023-05-07T14:59:09.674Z,13.90
2023-05-07T15:01:37.529Z,13.90
2023-05-07T15:04:05.402Z,13.80
2023-05-07T15:06:33.023Z,13.80
2023-05-07T15:09:02.717Z,13.70
2023-05-07T15:11:29.921Z,13.70
2023-05-07T15:13:57.013Z,13.60
2023-05-07T15:16:24.394Z,13.50
2023-05-07T15:18:51.329Z,13.50
2023-05-07T15:21:18.728Z,13.50
2023-05-07T15:23:46.033Z,13.40
2023-05-07T15:26:13.194Z,13.30
2023-05-07T15:28:40.649Z,13.30
2023-05-07T15:31:08.213Z,13.20
2023-05-07T15:33:35.410Z,13.20
2023-05-07T15:36:04.222Z,13.20
2023-05-07T15:38:31.424Z,13.00
2023-05-07T15:40:58.781Z,13.00
2023-05-07T15:43:26.497Z,13.00
2023-05-07T15:45:54.478Z,12.90
2023-05-07T15:48:21.718Z,12.90
2023-05-07T15:50:48.960Z,12.80
2023-05-07T15:53:16.003Z,12.80
2023-05-07T15:55:44.463Z,12.80
2023-05-07T15:58:11.500Z,12.70
2023-05-07T16:00:40.946Z,12.70
2023-05-07T16:03:08.890Z,12.60
2023-05-07T16:05:37.635Z,12.50
2023-05-07T16:08:05.452Z,12.60
2023-05-07T16:10:32.748Z,12.50
2023-05-07T16:13:00.172Z,12.50
2023-05-07T16:15:27.432Z,12.40
2023-05-07T16:17:58.138Z,12.40
2023-05-07T16:20:29.774Z,12.40
2023-05-07T16:22:58.321Z,12.30
2023-05-07T16:25:25.374Z,12.30
2023-05-07T16:27:53.845Z,12.40
2023-05-07T16:30:20.882Z,12.40
2023-05-07T16:32:48.339Z,12.30
2023-05-07T16:35:15.482Z,12.40
2023-05-07T16:37:42.827Z,12.30
2023-05-07T16:40:09.930Z,12.30
2023-05-07T16:42:37.804Z,12.30
2023-05-07T16:45:05.408Z,12.30
2023-05-07T16:47:32.734Z,12.20
2023-05-07T16:50:00.796Z,12.20
2023-05-07T16:52:29.937Z,12.20
2023-05-07T16:55:00.852Z,12.10
2023-05-07T16:57:29.429Z,12.10
2023-05-07T16:59:57.251Z,12.00
2023-05-07T17:02:24.788Z,11.90
2023-05-07T17:04:51.942Z,11.90
2023-05-07T17:07:19.328Z,11.90
2023-05-07T17:09:46.290Z,11.90
2023-05-07T17:12:13.484Z,11.90
2023-05-07T17:14:40.541Z,11.90
2023-05-07T17:17:07.915Z,11.90
2023-05-07T17:19:37.982Z,11.80
2023-05-07T17:22:07.102Z,11.80
2023-05-07T17:24:34.233Z,11.70
2023-05-07T17:27:01.650Z,11.60
2023-05-07T17:29:29.890Z,11.50
2023-05-07T17:31:57.211Z,11.50
2023-05-07T17:34:24.356Z,11.40
2023-05-07T17:36:52.762Z,11.40
2023-05-07T17:39:19.815Z,11.40
2023-05-07T17:41:47.972Z,11.40
2023-05-07T17:44:15.043Z,11.30
2023-05-07T17:46:42.236Z,11.30
2023-05-07T17:49:09.394Z,11.30
2023-05-07T17:51:52.539Z,11.30
2023-05-07T17:54:21.733Z,11.20
2023-05-07T17:56:49.035Z,11.10
2023-05-07T17:59:16.216Z,11.00
2023-05-07T18:01:44.401Z,11.00
2023-05-07T18:04:11.650Z,11.00
2023-05-07T18:06:39.915Z,10.90
2023-05-07T18:09:07.262Z,10.90
2023-05-07T18:11:34.876Z,10.80
2023-05-07T18:14:02.129Z,10.80
2023-05-07T18:16:29.684Z,10.70
2023-05-07T18:18:56.885Z,10.70
2023-05-07T18:21:24.204Z,10.60
2023-05-07T18:23:51.691Z,10.60
2023-05-07T18:26:19.036Z,10.50
2023-05-07T18:28:46.593Z,10.50
2023-05-07T18:31:14.081Z,10.50
2023-05-07T18:33:41.232Z,10.40
2023-05-07T18:36:08.781Z,10.40
2023-05-07T18:38:35.801Z,10.40
2023-05-07T18:41:03.401Z,10.30
2023-05-07T18:43:30.477Z,10.30
2023-05-07T18:45:58.341Z,10.20
2023-05-07T18:48:27.713Z,10.20
2023-05-07T18:50:54.909Z,10.20
2023-05-07T18:53:22.074Z,10.10
2023-05-07T18:55:53.266Z,10.10
2023-05-07T18:58:20.726Z,10.00
2023-05-07T19:00:48.009Z,10.00
2023-05-07T19:03:16.058Z,10.00
2023-05-07T19:05:43.765Z,9.90
2023-05-07T19:08:11.433Z,9.90
2023-05-07T19:10:38.458Z,9.80
2023-05-07T19:13:05.683Z,9.80
2023-05-07T19:15:32.710Z,9.80
2023-05-07T19:17:59.989Z,9.80
2023-05-07T19:20:27.119Z,9.80
2023-05-07T19:22:54.320Z,9.70
2023-05-07T19:25:21.370Z,9.70
2023-05-07T19:27:48.530Z,9.70
2023-05-07T19:30:15.542Z,9.60
2023-05-07T19:32:43.785Z,9.60
2023-05-07T19:35:12.246Z,9.60
2023-05-07T19:37:39.568Z,9.60
2023-05-07T19:40:07.153Z,9.50
2023-05-07T19:42:34.223Z,9.50
2023-05-07T19:45:01.264Z,9.50
2023-05-07T19:47:28.483Z,9.40
2023-05-07T19:49:55.808Z,9.40
2023-05-07T19:52:22.816Z,9.40
2023-05-07T19:54:49.753Z,9.40
2023-05-07T19:57:17.907Z,9.40
2023-05-07T19:59:46.746Z,9.40
2023-05-07T20:02:46.819Z,9.30
2023-05-07T20:05:14.109Z,9.30
2023-05-07T20:07:41.341Z,9.30
2023-05-07T20:10:08.548Z,9.30
2023-05-07T20:12:35.658Z,9.20
2023-05-07T20:15:02.955Z,9.20
2023-05-07T20:17:30.033Z,9.20
2023-05-07T20:19:57.021Z,9.20
2023-05-07T20:22:24.337Z,9.20
2023-05-07T20:24:51.332Z,9.10
2023-05-07T20:27:22.305Z,9.10
2023-05-07T20:29:49.386Z,9.00
2023-05-07T20:32:17.030Z,9.00
2023-05-07T20:34:47.170Z,9.00
2023-05-07T20:37:15.826Z,9.00
2023-05-07T20:39:43.381Z,8.90
2023-05-07T20:42:10.753Z,8.90
2023-05-07T20:44:37.843Z,8.90
2023-05-07T20:47:05.056Z,8.90
2023-05-07T20:49:32.019Z,8.90
2023-05-07T20:52:00.313Z,8.90
2023-05-07T20:54:28.498Z,8.80
2023-05-07T20:56:55.787Z,8.80
2023-05-07T20:59:22.815Z,8.80
2023-05-07T21:01:50.136Z,8.80
2023-05-07T21:04:17.483Z,8.80
2023-05-07T21:06:44.907Z,8.80
2023-05-07T21:09:12.004Z,8.70
2023-05-07T21:11:39.249Z,8.70
2023-05-07T21:14:06.166Z,8.70
2023-05-07T21:16:33.290Z,8.70
2023-05-07T21:19:00.406Z,8.60
2023-05-07T21:21:28.113Z,8.60
2023-05-07T21:23:55.529Z,8.50
2023-05-07T21:26:22.815Z,8.50
2023-05-07T21:28:49.985Z,8.40
2023-05-07T21:31:17.082Z,8.40
2023-05-07T21:33:44.462Z,8.50
2023-05-07T21:36:11.767Z,8.50
2023-05-07T21:38:38.904Z,8.50
2023-05-07T21:41:06.354Z,8.50
2023-05-07T21:43:33.685Z,8.60
2023-05-07T21:46:00.783Z,8.60
2023-05-07T21:48:28.015Z,8.60
2023-05-07T21:51:05.335Z,8.60
2023-05-07T21:53:32.703Z,8.60
2023-05-07T21:56:03.144Z,8.50
2023-05-07T21:58:31.218Z,8.50
2023-05-07T22:00:58.556Z,8.50
2023-05-07T22:03:25.834Z,8.40
2023-05-07T22:05:53.076Z,8.40
2023-05-07T22:08:20.338Z,8.40
2023-05-07T22:10:47.456Z,8.40
2023-05-07T22:13:14.644Z,8.50
2023-05-07T22:15:49.663Z,8.50
2023-05-07T22:18:23.921Z,8.50
2023-05-07T22:20:51.830Z,8.50
2023-05-07T22:23:19.526Z,8.50
2023-05-07T22:25:46.707Z,8.50
2023-05-07T22:28:13.982Z,8.50
2023-05-07T22:30:41.147Z,8.50
2023-05-07T22:33:08.652Z,8.50
2023-05-07T22:35:35.683Z,8.50
2023-05-07T22:38:02.785Z,8.50
2023-05-07T22:40:29.876Z,8.50
2023-05-07T22:42:57.005Z,8.50
2023-05-07T22:45:23.952Z,8.50
2023-05-07T22:47:51.013Z,8.50
2023-05-07T22:50:18.336Z,8.50
2023-05-07T22:52:45.591Z,8.50
2023-05-07T22:55:12.616Z,8.50
2023-05-07T22:57:39.872Z,8.40
2023-05-07T23:00:07.343Z,8.40
2023-05-07T23:02:34.666Z,8.40
2023-05-07T23:05:01.939Z,8.30
2023-05-07T23:07:29.353Z,8.30
2023-05-07T23:09:56.341Z,8.20
2023-05-07T23:12:23.398Z,8.20
2023-05-07T23:14:50.400Z,8.10
2023-05-07T23:17:17.410Z,8.10
2023-05-07T23:19:44.434Z,8.00
2023-05-07T23:22:12.387Z,8.00
2023-05-07T23:24:39.608Z,8.00
2023-05-07T23:27:07.441Z,8.00
2023-05-07T23:29:34.885Z,7.90
2023-05-07T23:32:02.028Z,7.90
2023-05-07T23:34:29.166Z,7.80
2023-05-07T23:36:56.107Z,7.80
2023-05-07T23:39:23.317Z,7.80
2023-05-07T23:41:50.417Z,7.80
2023-05-07T23:44:17.642Z,7.80
2023-05-07T23:46:44.861Z,7.70
2023-05-07T23:49:11.939Z,7.70
2023-05-07T23:51:38.983Z,7.80
2023-05-07T23:54:06.800Z,7.70
2023-05-07T23:56:34.174Z,7.70
2023-05-07T23:59:01.465Z,7.70
